Portada
METAR-TAF:

METAR-TAF

Aeroports :

Indianàpolis, Indiana, Estats Units d'Amèrica

latitud: 39-43-30N, longitud: 086-16-55W, altitud: 243 m

Observació

L'informe es va fer fa 43 minuts, a les 17:54 UTC
Vent calma
Temperatura 18°C
Humitat 37%
Pressió 1018 hPa
Visibilitat: 16.1 km
Cel ennuvolat a una alçada de 11000 ft
Cel ennuvolat a una alçada de 13000 ft

METAR: KIND 031754Z 00000KT 10SM BKN110 BKN130 18/03 A3007 RMK AO2 SLP182 T01780028 10178 20089 58013

Hora: 14:37 (18:37 UTC)

Pronòstic

L'informe es va fer fa 1 hora i 16 minuts, a les 17:21 UTC
Pronòstic vàlid del 03 a les 18 UTC al 04 a les 24 UTC
Vent 6 kt del Sud
Visibilitat: 10 km
Cel ennuvolat a una alçada de 8000 ft
A partir de les 04 a les 1300 UTC
Vent 10 kt del Oest/Nord-Oest
Visibilitat: 10 km
Cel cobert a una alçada de 1500 ft

TAF: KIND 031721Z 0318/0424 19006KT P6SM BKN080 FM041300 30010KT P6SM OVC015

Observacions i pronòstics meteorològics de més de 4000 aeroports (METAR i TAF).

Les estacions disponibles són els punts grocs i vermells al mapa.

Posi el ratolí al punt desitjat per veure el nom de l'estació.

Feu clic per veure les observacions i els pronòstics meteorològics.

Per canviar el mapa: feu clic els botons verds amb una creu de color negre per apropar; al botó verd amb un guió per allunyar la imatge; o en les fletxes verdes per a mapes adjacents.


METAR-TAF: